Time;durP1;ratioP1;P1;durP2;ratioP2;P2;SDS_P1;SDS_P2;PMS_P1;PMS_P2;Temp;Humidity;BMP_temperature;BMP_pressure;BME280_temperature;BME280_humidity;BME280_pressure;Samples;Min_cycle;Max_cycle;Signal;HPM_P1;HPM_P2
2021/10/30 00:02:05;;;;;;;0.40;0.20;;;8.20;99.90;;;;;;5090306;28;20387;-71
2021/10/30 00:04:31;;;;;;;0.47;0.43;;;8.10;99.90;;;;;;5091009;28;20720;-71
2021/10/30 00:06:59;;;;;;;0.40;0.30;;;8.10;99.90;;;;;;5089496;28;20386;-71
2021/10/30 00:09:24;;;;;;;0.40;0.30;;;7.90;99.90;;;;;;5090301;28;20964;-71
2021/10/30 00:11:50;;;;;;;0.40;0.20;;;8.00;99.90;;;;;;5090841;28;20410;-71
2021/10/30 00:14:16;;;;;;;0.40;0.20;;;7.90;99.90;;;;;;5090247;28;20527;-71
2021/10/30 00:16:41;;;;;;;0.40;0.20;;;7.80;99.90;;;;;;5090783;28;20385;-71
2021/10/30 00:19:07;;;;;;;0.40;0.20;;;7.80;99.90;;;;;;5090103;28;20935;-71
2021/10/30 00:21:33;;;;;;;0.40;0.20;;;7.90;99.90;;;;;;5090787;28;20378;-71
2021/10/30 00:23:59;;;;;;;0.40;0.30;;;7.90;99.90;;;;;;5090509;28;20413;-71
2021/10/30 00:26:24;;;;;;;0.60;0.50;;;7.90;99.90;;;;;;5090030;28;20386;-71
2021/10/30 00:28:50;;;;;;;0.40;0.30;;;7.80;99.90;;;;;;5090615;28;20480;-71
2021/10/30 00:31:16;;;;;;;0.40;0.27;;;7.90;99.90;;;;;;5090155;28;20448;-71
2021/10/30 00:33:41;;;;;;;0.40;0.20;;;7.80;99.90;;;;;;5090919;28;20398;-72
2021/10/30 00:36:08;;;;;;;0.40;0.30;;;7.90;99.90;;;;;;5090170;28;20405;-71
2021/10/30 00:38:35;;;;;;;0.40;0.30;;;7.80;99.90;;;;;;5090473;28;20855;-71
2021/10/30 00:41:04;;;;;;;0.40;0.20;;;8.00;99.90;;;;;;5090684;28;20378;-71
2021/10/30 00:43:31;;;;;;;0.40;0.40;;;8.10;99.90;;;;;;5090821;28;20435;-71
2021/10/30 00:45:57;;;;;;;0.40;0.30;;;8.00;99.90;;;;;;5090600;28;20390;-71
2021/10/30 00:48:22;;;;;;;0.40;0.20;;;8.10;99.90;;;;;;5089544;28;20390;-71
2021/10/30 00:50:48;;;;;;;0.40;0.20;;;8.10;99.90;;;;;;5088972;28;20409;-71
2021/10/30 00:53:15;;;;;;;0.40;0.30;;;7.90;99.90;;;;;;5089423;28;20509;-71
2021/10/30 00:55:42;;;;;;;0.40;0.30;;;7.90;99.90;;;;;;5090501;28;20382;-71
2021/10/30 00:58:10;;;;;;;0.40;0.20;;;7.90;99.90;;;;;;5093028;28;20377;-71
2021/10/30 01:00:36;;;;;;;0.40;0.20;;;7.80;99.90;;;;;;5094595;28;20538;-72
2021/10/30 01:03:02;;;;;;;0.40;0.30;;;7.90;99.90;;;;;;5094485;28;20465;-71
2021/10/30 01:05:28;;;;;;;0.40;0.30;;;7.80;99.90;;;;;;5093705;28;20390;-72
2021/10/30 01:07:53;;;;;;;3.00;0.80;;;7.90;99.90;;;;;;5094178;28;20382;-71
2021/10/30 01:10:20;;;;;;;0.40;0.30;;;7.80;99.90;;;;;;5093518;28;20402;-71
2021/10/30 01:12:46;;;;;;;0.40;0.20;;;7.70;99.90;;;;;;5093926;28;20370;-71
2021/10/30 01:15:12;;;;;;;0.40;0.20;;;7.60;99.90;;;;;;5093243;28;20378;-71
2021/10/30 01:17:38;;;;;;;0.40;0.20;;;7.50;99.90;;;;;;5093944;28;20799;-71
2021/10/30 01:20:05;;;;;;;0.40;0.30;;;7.40;99.90;;;;;;5094060;28;20472;-71
2021/10/30 01:22:35;;;;;;;0.40;0.30;;;7.50;99.90;;;;;;5093396;28;20442;-72
2021/10/30 01:25:01;;;;;;;0.40;0.20;;;7.50;99.90;;;;;;5093969;28;20390;-71
2021/10/30 01:27:27;;;;;;;0.40;0.20;;;7.30;99.90;;;;;;5093134;28;20477;-71
2021/10/30 01:29:52;;;;;;;0.40;0.30;;;7.40;99.90;;;;;;5093472;28;20528;-71
2021/10/30 01:32:20;;;;;;;0.40;0.30;;;7.40;99.90;;;;;;5092755;28;20409;-71
2021/10/30 01:34:46;;;;;;;0.40;0.20;;;7.30;99.90;;;;;;5093626;28;20398;-71
2021/10/30 01:37:13;;;;;;;0.40;0.30;;;7.30;99.90;;;;;;5092968;28;20449;-71
2021/10/30 01:39:39;;;;;;;0.40;0.30;;;7.30;99.90;;;;;;5093525;28;20390;-72
2021/10/30 01:42:05;;;;;;;0.40;0.30;;;7.20;99.90;;;;;;5093508;28;20381;-71
2021/10/30 01:44:32;;;;;;;0.40;0.20;;;7.10;99.90;;;;;;5092830;28;20383;-71
2021/10/30 01:47:01;;;;;;;0.40;0.20;;;7.20;99.90;;;;;;5093151;28;20430;-71
2021/10/30 01:49:29;;;;;;;0.40;0.30;;;7.20;99.90;;;;;;5092718;28;20801;-71
2021/10/30 01:51:55;;;;;;;0.40;0.20;;;7.00;99.90;;;;;;5093347;28;20402;-71
2021/10/30 01:54:21;;;;;;;0.40;0.30;;;7.00;99.90;;;;;;5092735;28;20374;-72
2021/10/30 01:56:47;;;;;;;0.40;0.30;;;7.10;99.90;;;;;;5093301;28;20374;-71
2021/10/30 01:59:13;;;;;;;0.40;0.30;;;7.20;99.90;;;;;;5092382;28;20382;-71
2021/10/30 02:01:39;;;;;;;0.40;0.30;;;7.20;99.90;;;;;;5093261;28;20378;-71
2021/10/30 02:04:04;;;;;;;0.40;0.30;;;7.30;99.90;;;;;;5093117;28;20738;-71
2021/10/30 02:06:30;;;;;;;0.40;0.20;;;7.30;99.90;;;;;;5092482;28;20378;-71
2021/10/30 02:08:55;;;;;;;0.40;0.30;;;7.30;99.90;;;;;;5090663;28;20390;-71
2021/10/30 02:11:21;;;;;;;1.50;1.40;;;7.30;99.90;;;;;;5092450;28;20374;-71
2021/10/30 02:13:47;;;;;;;0.40;0.30;;;7.30;99.90;;;;;;5092913;28;20374;-70
2021/10/30 02:16:13;;;;;;;0.40;0.30;;;7.30;99.90;;;;;;5092077;28;20371;-71
2021/10/30 02:18:40;;;;;;;0.40;0.30;;;7.20;99.90;;;;;;5092542;28;20870;-71
2021/10/30 02:21:06;;;;;;;0.40;0.20;;;7.30;99.90;;;;;;5092895;28;20718;-71
2021/10/30 02:23:32;;;;;;;0.40;0.30;;;7.20;99.90;;;;;;5092278;28;20370;-71
2021/10/30 02:25:58;;;;;;;0.40;0.30;;;7.10;99.90;;;;;;5092738;28;20390;-70
2021/10/30 02:28:23;;;;;;;0.40;0.20;;;7.30;99.90;;;;;;5092071;28;20885;-71
2021/10/30 02:30:49;;;;;;;0.40;0.22;;;7.20;99.90;;;;;;5092444;28;20439;-71
2021/10/30 02:33:15;;;;;;;0.40;0.30;;;7.30;99.90;;;;;;5091650;28;20409;-71
2021/10/30 02:35:41;;;;;;;0.40;0.30;;;7.20;99.90;;;;;;5092494;28;20397;-71
2021/10/30 02:38:06;;;;;;;0.40;0.30;;;7.10;99.90;;;;;;5092463;28;20452;-70
2021/10/30 02:40:32;;;;;;;0.40;0.30;;;7.20;99.90;;;;;;5091924;28;20811;-71
2021/10/30 02:42:58;;;;;;;0.40;0.20;;;7.20;99.90;;;;;;5092368;28;20934;-70
2021/10/30 02:45:24;;;;;;;0.40;0.20;;;7.30;99.90;;;;;;5091822;28;20872;-71
2021/10/30 02:47:49;;;;;;;0.40;0.20;;;7.30;99.90;;;;;;5092115;28;20413;-71
2021/10/30 02:50:16;;;;;;;0.40;0.30;;;7.30;99.90;;;;;;5091546;28;20402;-71
2021/10/30 02:52:41;;;;;;;0.40;0.30;;;7.40;99.90;;;;;;5092094;28;20400;-71
2021/10/30 02:55:09;;;;;;;0.40;0.30;;;7.30;99.90;;;;;;5092078;28;20378;-71
2021/10/30 02:57:34;;;;;;;0.40;0.30;;;7.20;99.90;;;;;;5091441;28;20384;-72
2021/10/30 03:00:00;;;;;;;0.40;0.30;;;7.20;99.90;;;;;;5092019;28;20378;-71
2021/10/30 03:02:25;;;;;;;0.50;0.50;;;7.10;99.90;;;;;;5091458;28;20382;-71
2021/10/30 03:04:51;;;;;;;0.40;0.20;;;7.10;99.90;;;;;;5091741;28;20400;-71
2021/10/30 03:07:18;;;;;;;0.40;0.20;;;7.10;99.90;;;;;;5091349;28;20385;-71
2021/10/30 03:09:49;;;;;;;0.40;0.28;;;7.10;99.90;;;;;;5091730;28;20444;-71
2021/10/30 03:12:15;;;;;;;0.40;0.30;;;7.10;99.90;;;;;;5091357;28;20386;-71
2021/10/30 03:14:40;;;;;;;0.40;0.30;;;7.00;99.90;;;;;;5091783;28;20457;-71
2021/10/30 03:17:06;;;;;;;0.73;0.63;;;7.00;99.90;;;;;;5090656;28;20516;-71
2021/10/30 03:19:32;;;;;;;0.40;0.30;;;6.90;99.90;;;;;;5090896;28;20842;-71
2021/10/30 03:21:58;;;;;;;0.40;0.30;;;7.00;99.90;;;;;;5091320;28;20386;-70
2021/10/30 03:24:24;;;;;;;0.40;0.20;;;6.90;99.90;;;;;;5091007;28;20790;-71
2021/10/30 03:26:50;;;;;;;0.40;0.30;;;7.10;99.90;;;;;;5091279;28;20479;-71
2021/10/30 03:29:15;;;;;;;0.40;0.20;;;7.10;99.90;;;;;;5090907;28;20402;-71
2021/10/30 03:31:41;;;;;;;0.40;0.20;;;7.10;99.90;;;;;;5091179;28;20471;-71
2021/10/30 03:34:07;;;;;;;0.40;0.30;;;7.10;99.90;;;;;;5091352;28;20390;-71
2021/10/30 03:36:33;;;;;;;0.40;0.20;;;7.20;99.90;;;;;;5090529;28;20826;-71
2021/10/30 03:38:59;;;;;;;0.40;0.30;;;7.20;99.90;;;;;;5091321;28;20424;-71
2021/10/30 03:41:25;;;;;;;0.40;0.30;;;7.30;99.90;;;;;;5090692;28;20849;-71
2021/10/30 03:43:51;;;;;;;0.40;0.30;;;7.30;99.90;;;;;;5091199;28;20382;-71
2021/10/30 03:46:17;;;;;;;0.40;0.20;;;7.20;99.90;;;;;;5089260;28;20421;-71
2021/10/30 03:48:42;;;;;;;0.40;0.20;;;7.20;99.90;;;;;;5090627;28;20416;-71
2021/10/30 03:51:08;;;;;;;0.40;0.20;;;7.20;99.90;;;;;;5090849;28;20467;-71
2021/10/30 03:53:34;;;;;;;0.40;0.20;;;7.20;99.90;;;;;;5090067;28;20809;-71
2021/10/30 03:55:59;;;;;;;0.50;0.40;;;7.20;99.90;;;;;;5091354;28;20741;-71
2021/10/30 03:58:25;;;;;;;0.40;0.30;;;6.90;99.90;;;;;;5090447;28;20378;-71
2021/10/30 04:00:51;;;;;;;0.40;0.20;;;7.00;99.90;;;;;;5091088;28;20385;-71
2021/10/30 04:03:16;;;;;;;0.40;0.30;;;6.90;99.90;;;;;;5090677;28;20862;-72
2021/10/30 04:05:42;;;;;;;0.40;0.25;;;7.10;99.90;;;;;;5090718;28;20393;-71
2021/10/30 04:08:08;;;;;;;0.40;0.30;;;7.10;99.90;;;;;;5090819;28;20382;-70
2021/10/30 04:10:34;;;;;;;0.40;0.30;;;7.10;99.90;;;;;;5090220;28;20861;-70
2021/10/30 04:13:01;;;;;;;0.40;0.20;;;7.20;99.90;;;;;;5089828;28;20676;-70
2021/10/30 04:15:26;;;;;;;0.40;0.30;;;7.10;99.90;;;;;;5090148;28;20374;-71
2021/10/30 04:17:52;;;;;;;1.10;1.00;;;7.00;99.90;;;;;;5090777;28;20385;-71
2021/10/30 04:20:18;;;;;;;0.80;0.80;;;7.00;99.90;;;;;;5089226;28;20386;-71
2021/10/30 04:22:43;;;;;;;0.40;0.20;;;7.00;99.90;;;;;;5089274;28;20447;-71
2021/10/30 04:25:09;;;;;;;0.40;0.20;;;6.90;99.90;;;;;;5090418;28;20423;-70
2021/10/30 04:27:35;;;;;;;0.40;0.30;;;6.80;99.90;;;;;;5090119;28;20377;-71
2021/10/30 04:30:01;;;;;;;0.40;0.30;;;7.00;99.90;;;;;;5090491;28;20927;-71
2021/10/30 04:32:26;;;;;;;0.80;0.80;;;7.10;99.90;;;;;;5092412;28;20447;-71
2021/10/30 04:34:58;;;;;;;0.40;0.30;;;7.20;99.90;;;;;;5094902;28;20390;-71
2021/10/30 04:37:24;;;;;;;0.40;0.20;;;7.40;99.90;;;;;;5093895;28;20506;-71
2021/10/30 04:39:52;;;;;;;0.47;0.47;;;7.50;99.90;;;;;;5094672;28;20387;-72
2021/10/30 04:42:20;;;;;;;0.40;0.20;;;7.70;99.90;;;;;;5094794;28;20374;-72
2021/10/30 04:44:47;;;;;;;0.40;0.20;;;7.70;99.90;;;;;;5094573;28;20384;-71
2021/10/30 04:47:16;;;;;;;0.40;0.30;;;7.60;99.90;;;;;;5094281;28;20870;-71
2021/10/30 04:49:43;;;;;;;0.40;0.30;;;7.50;99.90;;;;;;5093670;28;20444;-71
2021/10/30 04:52:09;;;;;;;0.40;0.25;;;7.40;99.90;;;;;;5094837;28;20402;-72
2021/10/30 04:54:35;;;;;;;0.50;0.40;;;7.40;99.90;;;;;;5093283;28;20381;-71
2021/10/30 04:57:00;;;;;;;0.60;0.60;;;7.40;99.90;;;;;;5094511;28;20374;-71
2021/10/30 04:59:26;;;;;;;0.40;0.20;;;7.40;99.90;;;;;;5093691;28;20795;-71
2021/10/30 05:01:52;;;;;;;0.40;0.20;;;7.40;99.90;;;;;;5094442;28;20842;-71
2021/10/30 05:04:17;;;;;;;0.40;0.20;;;7.50;99.90;;;;;;5094294;28;20933;-71
2021/10/30 05:06:43;;;;;;;2.10;0.90;;;7.50;99.90;;;;;;5093245;28;20457;-71
2021/10/30 05:09:09;;;;;;;0.40;0.30;;;7.10;99.90;;;;;;5094277;28;20577;-71
2021/10/30 05:11:35;;;;;;;0.70;0.70;;;7.10;99.90;;;;;;5092928;28;20433;-71
2021/10/30 05:14:01;;;;;;;0.50;0.50;;;7.10;99.90;;;;;;5094200;28;20380;-71
2021/10/30 05:16:26;;;;;;;0.40;0.20;;;7.20;99.90;;;;;;5093297;28;20389;-72
2021/10/30 05:18:52;;;;;;;0.40;0.20;;;7.10;99.90;;;;;;5094172;28;20401;-71
2021/10/30 05:21:18;;;;;;;0.40;0.20;;;7.00;99.90;;;;;;5094065;28;20700;-71
2021/10/30 05:23:43;;;;;;;0.40;0.40;;;7.10;99.90;;;;;;5092744;28;20767;-71
2021/10/30 05:26:10;;;;;;;0.40;0.30;;;7.00;99.90;;;;;;5093724;28;20381;-71
2021/10/30 05:28:36;;;;;;;0.40;0.20;;;7.00;99.90;;;;;;5093304;28;20439;-71
2021/10/30 05:31:02;;;;;;;0.40;0.20;;;7.10;99.90;;;;;;5093482;28;20402;-71
2021/10/30 05:33:28;;;;;;;0.40;0.20;;;7.00;99.90;;;;;;5093135;28;20374;-71
2021/10/30 05:35:53;;;;;;;0.40;0.20;;;7.00;99.90;;;;;;5093537;28;20389;-71
2021/10/30 05:38:19;;;;;;;0.40;0.20;;;7.00;99.90;;;;;;5093849;28;20803;-71
2021/10/30 05:40:46;;;;;;;0.40;0.20;;;7.00;99.90;;;;;;5092933;28;20477;-71
2021/10/30 05:43:13;;;;;;;0.40;0.30;;;7.00;99.90;;;;;;5092623;28;20433;-71
2021/10/30 05:45:40;;;;;;;0.40;0.30;;;6.90;99.90;;;;;;5092561;28;20386;-71
2021/10/30 05:48:07;;;;;;;0.40;0.30;;;6.90;99.90;;;;;;5093630;28;20485;-71
2021/10/30 05:50:33;;;;;;;0.40;0.40;;;6.90;99.90;;;;;;5092712;28;20414;-71
2021/10/30 05:53:00;;;;;;;0.40;0.23;;;6.90;99.90;;;;;;5091995;28;20951;-71
2021/10/30 05:55:26;;;;;;;1.95;0.35;;;6.70;99.90;;;;;;5092505;28;20881;-71
2021/10/30 05:57:52;;;;;;;0.40;0.40;;;6.60;99.90;;;;;;5093383;28;20370;-71
2021/10/30 06:00:17;;;;;;;0.40;0.30;;;6.70;99.90;;;;;;5091662;28;20382;-71
2021/10/30 06:02:43;;;;;;;1.00;0.80;;;6.80;99.90;;;;;;5092834;28;20374;-71
2021/10/30 06:05:09;;;;;;;0.40;0.20;;;6.80;99.90;;;;;;5093041;28;20390;-71
2021/10/30 06:07:35;;;;;;;0.40;0.30;;;6.90;99.90;;;;;;5092303;28;20385;-74
2021/10/30 06:10:01;;;;;;;0.90;0.60;;;6.90;99.90;;;;;;5093077;28;20408;-72
2021/10/30 06:12:27;;;;;;;0.47;0.38;;;7.10;99.90;;;;;;5092514;28;20727;-72
2021/10/30 06:14:56;;;;;;;0.40;0.30;;;7.10;99.90;;;;;;5091816;28;20378;-72
2021/10/30 06:17:21;;;;;;;0.40;0.20;;;7.10;99.90;;;;;;5093062;28;20394;-70
2021/10/30 06:19:47;;;;;;;1.00;1.00;;;7.20;99.90;;;;;;5092255;28;20393;-71
2021/10/30 06:22:13;;;;;;;0.40;0.30;;;7.30;99.90;;;;;;5092867;28;20385;-71
2021/10/30 06:24:41;;;;;;;0.40;0.40;;;7.40;99.90;;;;;;5092283;28;20406;-71
2021/10/30 06:27:07;;;;;;;0.40;0.22;;;7.50;99.90;;;;;;5092968;28;20451;-71
2021/10/30 06:29:32;;;;;;;0.40;0.20;;;7.40;99.90;;;;;;5091781;28;20410;-71
2021/10/30 06:31:58;;;;;;;0.40;0.30;;;7.30;99.90;;;;;;5091537;28;20708;-71
2021/10/30 06:34:24;;;;;;;0.40;0.20;;;7.40;99.90;;;;;;5092560;28;20386;-71
2021/10/30 06:36:49;;;;;;;0.40;0.30;;;7.50;99.90;;;;;;5091951;28;20418;-70
2021/10/30 06:39:15;;;;;;;0.40;0.30;;;7.50;99.90;;;;;;5091811;28;20382;-70
2021/10/30 06:41:41;;;;;;;0.40;0.30;;;7.40;99.90;;;;;;5091536;28;20370;-70
2021/10/30 06:44:06;;;;;;;0.40;0.30;;;7.40;99.90;;;;;;5092366;28;20447;-70
2021/10/30 06:46:32;;;;;;;0.40;0.20;;;7.40;99.90;;;;;;5091704;28;20370;-71
2021/10/30 06:48:58;;;;;;;0.40;0.30;;;7.90;99.90;;;;;;5092064;28;20425;-70
2021/10/30 06:51:25;;;;;;;0.50;0.50;;;8.20;99.90;;;;;;5092311;28;20386;-70
2021/10/30 06:53:51;;;;;;;0.40;0.30;;;8.30;99.90;;;;;;5091022;28;20389;-70
2021/10/30 06:56:18;;;;;;;0.50;0.50;;;8.30;99.90;;;;;;5092208;28;20375;-70
2021/10/30 06:58:44;;;;;;;0.40;0.20;;;8.20;99.90;;;;;;5091285;28;20386;-70
2021/10/30 07:01:13;;;;;;;0.40;0.30;;;8.40;99.90;;;;;;5092234;28;20544;-70
2021/10/30 07:03:42;;;;;;;1.20;0.70;;;8.40;99.90;;;;;;5091314;28;20473;-70
2021/10/30 07:06:11;;;;;;;0.40;0.40;;;8.40;99.90;;;;;;5092395;28;20409;-70
2021/10/30 07:08:37;;;;;;;0.40;0.30;;;8.40;99.90;;;;;;5090957;28;20539;-71
2021/10/30 07:11:03;;;;;;;0.70;0.60;;;8.60;99.90;;;;;;5092036;28;20804;-70
2021/10/30 07:13:29;;;;;;;0.40;0.30;;;8.50;99.90;;;;;;5091622;28;20374;-71
2021/10/30 07:15:55;;;;;;;0.40;0.20;;;8.70;99.90;;;;;;5092084;28;20381;-70
2021/10/30 07:18:20;;;;;;;0.40;0.20;;;9.00;99.90;;;;;;5092204;28;20436;-69
2021/10/30 07:20:46;;;;;;;0.40;0.30;;;9.30;99.90;;;;;;5090790;28;20382;-70
2021/10/30 07:23:12;;;;;;;0.57;0.57;;;9.40;99.90;;;;;;5092026;28;20378;-70
2021/10/30 07:25:40;;;;;;;0.40;0.20;;;9.50;99.90;;;;;;5089000;28;20386;-71
2021/10/30 07:28:05;;;;;;;0.40;0.30;;;9.60;99.90;;;;;;5091968;28;20420;-70
2021/10/30 07:30:31;;;;;;;0.40;0.20;;;9.60;99.90;;;;;;5090701;28;20414;-71
2021/10/30 07:32:57;;;;;;;0.40;0.20;;;9.50;99.90;;;;;;5092007;28;20385;-71
2021/10/30 07:35:24;;;;;;;0.40;0.40;;;9.20;99.90;;;;;;5091253;28;20831;-70
2021/10/30 07:37:51;;;;;;;1.00;1.00;;;9.30;99.90;;;;;;5090560;28;20381;-71
2021/10/30 07:40:17;;;;;;;0.40;0.30;;;9.20;99.90;;;;;;5091200;28;20401;-71
2021/10/30 07:42:43;;;;;;;1.10;0.90;;;9.20;99.90;;;;;;5090401;28;20378;-71
2021/10/30 07:45:10;;;;;;;0.40;0.20;;;9.20;99.90;;;;;;5091159;28;20742;-71
2021/10/30 07:47:37;;;;;;;0.40;0.30;;;9.10;99.90;;;;;;5090393;28;20381;-71
2021/10/30 07:50:04;;;;;;;0.40;0.30;;;9.00;99.90;;;;;;5091333;28;20755;-71
2021/10/30 07:52:30;;;;;;;0.40;0.30;;;9.10;99.90;;;;;;5089594;28;20410;-71
2021/10/30 07:54:56;;;;;;;0.40;0.30;;;9.20;99.90;;;;;;5090912;28;20842;-71
2021/10/30 07:57:22;;;;;;;1.50;1.40;;;9.20;99.90;;;;;;5091306;28;20382;-71
2021/10/30 07:59:50;;;;;;;0.40;0.20;;;9.20;99.90;;;;;;5090751;28;20375;-71
2021/10/30 08:02:17;;;;;;;0.40;0.20;;;9.20;99.90;;;;;;5090247;28;20382;-71
2021/10/30 08:04:43;;;;;;;0.40;0.20;;;9.10;99.90;;;;;;5089816;28;20401;-71
2021/10/30 08:07:09;;;;;;;0.40;0.30;;;9.30;99.90;;;;;;5089062;28;20801;-71
2021/10/30 08:09:34;;;;;;;0.40;0.40;;;9.10;99.90;;;;;;5090572;28;20410;-71
2021/10/30 08:12:01;;;;;;;0.40;0.30;;;9.30;99.90;;;;;;5091382;28;20374;-71
2021/10/30 08:14:27;;;;;;;0.40;0.30;;;9.30;99.90;;;;;;5091444;28;20374;-71
2021/10/30 08:16:53;;;;;;;0.40;0.30;;;9.50;99.90;;;;;;5090780;28;20504;-71
2021/10/30 08:19:18;;;;;;;0.40;0.30;;;9.40;99.90;;;;;;5091329;28;20401;-72
2021/10/30 08:21:44;;;;;;;0.40;0.20;;;9.40;99.90;;;;;;5090790;28;20366;-71
2021/10/30 08:24:11;;;;;;;1.20;1.10;;;9.40;99.90;;;;;;5091277;28;20406;-71
2021/10/30 08:26:36;;;;;;;1.00;0.90;;;9.40;99.90;;;;;;5090677;28;20363;-71
2021/10/30 08:29:03;;;;;;;0.40;0.30;;;9.30;99.90;;;;;;5091185;28;20382;-71
2021/10/30 08:31:28;;;;;;;0.40;0.20;;;9.40;99.90;;;;;;5091207;28;20688;-71
2021/10/30 08:33:57;;;;;;;0.40;0.40;;;9.50;99.90;;;;;;5090637;28;20423;-71
2021/10/30 08:36:23;;;;;;;0.50;0.50;;;9.60;99.90;;;;;;5091197;28;20412;-71
2021/10/30 08:38:49;;;;;;;0.40;0.40;;;9.60;99.90;;;;;;5090236;28;20378;-71
2021/10/30 08:41:14;;;;;;;1.40;0.90;;;9.50;99.90;;;;;;5089761;28;20399;-71
2021/10/30 08:43:41;;;;;;;0.40;0.20;;;9.60;99.90;;;;;;5090445;28;20468;-71
2021/10/30 08:46:07;;;;;;;0.50;0.50;;;9.50;99.90;;;;;;5090790;28;20876;-71
2021/10/30 08:48:32;;;;;;;0.40;0.30;;;9.50;99.90;;;;;;5090645;28;20715;-71
2021/10/30 08:51:03;;;;;;;0.40;0.30;;;9.50;99.90;;;;;;5089706;28;20410;-71
2021/10/30 08:53:30;;;;;;;0.50;0.50;;;9.50;99.90;;;;;;5091211;28;20409;-71
2021/10/30 08:55:58;;;;;;;0.40;0.20;;;9.60;99.90;;;;;;5089916;28;20378;-71
2021/10/30 08:58:27;;;;;;;0.40;0.30;;;9.70;99.90;;;;;;5090798;28;20727;-70
2021/10/30 09:00:55;;;;;;;0.40;0.30;;;9.80;99.90;;;;;;5090375;28;20791;-71
2021/10/30 09:03:22;;;;;;;0.40;0.20;;;9.80;99.90;;;;;;5091011;28;20435;-71
2021/10/30 09:05:55;;;;;;;0.40;0.20;;;9.90;99.90;;;;;;5089290;28;20436;-71
2021/10/30 09:08:25;;;;;;;0.40;0.30;;;9.90;99.90;;;;;;5090934;28;20382;-71
2021/10/30 09:10:54;;;;;;;0.40;0.40;;;10.20;99.90;;;;;;5090393;28;20475;-71
2021/10/30 09:13:21;;;;;;;0.40;0.30;;;10.20;99.90;;;;;;5090945;28;20417;-71
2021/10/30 09:15:49;;;;;;;0.40;0.40;;;10.20;99.90;;;;;;5090357;28;20385;-71
2021/10/30 09:18:24;;;;;;;0.40;0.30;;;10.30;99.90;;;;;;5092811;28;20419;-72
2021/10/30 09:20:54;;;;;;;0.40;0.30;;;10.40;99.90;;;;;;5094201;28;20389;-72
2021/10/30 09:23:39;;;;;;;0.40;0.20;;;10.40;99.90;;;;;;5094484;28;20374;-71
2021/10/30 09:26:15;;;;;;;0.40;0.30;;;10.30;99.90;;;;;;5094653;28;20382;-71
2021/10/30 09:28:50;;;;;;;0.40;0.30;;;10.40;99.90;;;;;;5093843;28;20378;-71
2021/10/30 09:31:17;;;;;;;0.40;0.38;;;10.40;99.90;;;;;;5094643;28;20463;-71
2021/10/30 09:33:55;;;;;;;0.40;0.30;;;10.40;99.90;;;;;;5093730;28;20374;-71
2021/10/30 09:36:26;;;;;;;0.40;0.30;;;10.40;99.90;;;;;;5094339;28;20866;-73
2021/10/30 09:38:54;;;;;;;0.60;0.60;;;10.50;99.90;;;;;;5093488;28;20382;-71
2021/10/30 09:41:29;;;;;;;0.45;0.32;;;10.50;99.90;;;;;;5094204;28;20710;-72
2021/10/30 09:44:01;;;;;;;0.40;0.30;;;10.70;99.90;;;;;;5093482;28;20381;-72
2021/10/30 09:46:28;;;;;;;0.75;0.75;;;10.80;99.90;;;;;;5093959;28;20835;-72
2021/10/30 09:48:55;;;;;;;0.90;0.50;;;10.80;99.90;;;;;;5093358;28;20381;-71
2021/10/30 09:51:30;;;;;;;0.40;0.40;;;10.90;99.90;;;;;;5093689;28;20426;-72
2021/10/30 09:53:56;;;;;;;1.10;0.70;;;10.80;99.90;;;;;;5093039;28;20404;-72
2021/10/30 09:56:21;;;;;;;0.40;0.40;;;10.60;99.90;;;;;;5093689;28;20402;-72
2021/10/30 09:58:47;;;;;;;0.63;0.63;;;10.40;99.90;;;;;;5092283;28;20427;-71
2021/10/30 10:01:19;;;;;;;0.40;0.28;;;10.50;99.90;;;;;;5093579;28;20374;-71
2021/10/30 10:03:49;;;;;;;0.40;0.30;;;10.40;99.90;;;;;;5092931;28;20409;-71
2021/10/30 10:06:17;;;;;;;0.40;0.40;;;10.40;99.90;;;;;;5093949;28;20398;-71
2021/10/30 10:08:46;;;;;;;0.40;0.40;;;10.40;99.90;;;;;;5092925;28;20465;-71
2021/10/30 10:11:15;;;;;;;0.40;0.40;;;10.30;99.90;;;;;;5093573;28;20402;-72
2021/10/30 10:13:46;;;;;;;0.40;0.30;;;10.30;99.90;;;;;;5092808;28;20370;-71
2021/10/30 10:16:23;;;;;;;1.50;0.80;;;10.00;99.90;;;;;;5093512;28;20381;-71
2021/10/30 10:18:53;;;;;;;0.40;0.40;;;9.70;99.90;;;;;;5092858;28;20459;-70
2021/10/30 10:21:27;;;;;;;0.40;0.22;;;9.60;99.90;;;;;;5093099;28;20934;-72
2021/10/30 10:23:58;;;;;;;1.20;1.10;;;9.10;99.90;;;;;;5092348;28;20370;-71
2021/10/30 10:26:49;;;;;;;0.40;0.30;;;8.80;99.90;;;;;;5091692;28;20389;-71
2021/10/30 10:29:26;;;;;;;0.47;0.47;;;8.80;99.90;;;;;;5092378;28;20414;-71
2021/10/30 10:31:52;;;;;;;0.40;0.20;;;8.80;99.90;;;;;;5092482;28;20385;-72
2021/10/30 10:34:33;;;;;;;0.40;0.40;;;8.80;99.90;;;;;;5093325;28;20919;-72
2021/10/30 10:37:10;;;;;;;0.70;0.70;;;8.70;99.90;;;;;;5092552;28;20584;-73
2021/10/30 10:39:36;;;;;;;0.50;0.50;;;8.40;99.90;;;;;;5093417;28;20446;-72
2021/10/30 10:42:03;;;;;;;0.40;0.30;;;8.40;99.90;;;;;;5092351;28;20409;-72
2021/10/30 10:44:29;;;;;;;0.40;0.30;;;8.30;99.90;;;;;;5093032;28;20390;-72
2021/10/30 10:46:57;;;;;;;0.40;0.30;;;8.30;99.90;;;;;;5092313;28;20485;-72
2021/10/30 10:49:47;;;;;;;0.50;0.50;;;8.60;99.90;;;;;;5092424;28;20896;-71
2021/10/30 10:52:22;;;;;;;0.80;0.80;;;8.80;99.90;;;;;;5092778;28;20455;-72
2021/10/30 10:54:58;;;;;;;0.40;0.40;;;8.80;99.90;;;;;;5092061;28;20385;-71
2021/10/30 10:57:32;;;;;;;0.40;0.30;;;8.90;99.90;;;;;;5092681;28;20742;-72
2021/10/30 10:59:58;;;;;;;0.40;0.20;;;8.90;99.90;;;;;;5091894;28;20740;-71
2021/10/30 11:02:29;;;;;;;0.40;0.40;;;9.00;99.90;;;;;;5092593;28;20386;-71
2021/10/30 11:05:14;;;;;;;0.40;0.30;;;9.10;99.90;;;;;;5091727;28;20901;-71
2021/10/30 11:07:43;;;;;;;0.40;0.20;;;9.00;99.90;;;;;;5092405;28;20465;-72
2021/10/30 11:10:14;;;;;;;0.40;0.40;;;9.30;99.90;;;;;;5092124;28;20807;-71
2021/10/30 11:13:21;;;;;;;0.40;0.30;;;9.40;99.90;;;;;;5092478;28;20477;-72
2021/10/30 11:15:55;;;;;;;0.50;0.40;;;9.30;99.90;;;;;;5009214;28;20447;-72
2021/10/30 11:21:25;;;;;;;1.80;1.00;;;9.40;99.90;;;;;;5091675;28;20396;-71
2021/10/30 11:23:53;;;;;;;0.40;0.30;;;9.70;99.90;;;;;;5091329;28;20473;-70
2021/10/30 11:26:22;;;;;;;0.50;0.50;;;9.60;99.90;;;;;;5091908;28;20888;-70
2021/10/30 11:28:48;;;;;;;0.40;0.30;;;9.50;99.90;;;;;;5091147;28;20905;-71
2021/10/30 11:31:22;;;;;;;0.40;0.40;;;9.70;99.90;;;;;;5092104;28;20418;-70
2021/10/30 11:34:01;;;;;;;0.60;0.60;;;9.70;99.90;;;;;;5091504;28;20381;-70
2021/10/30 11:36:27;;;;;;;0.43;0.38;;;9.50;99.90;;;;;;5091721;28;20938;-70
2021/10/30 11:38:55;;;;;;;0.40;0.20;;;9.40;99.90;;;;;;5091311;28;20402;-70
2021/10/30 11:41:32;;;;;;;0.40;0.30;;;9.40;99.90;;;;;;5091867;28;20410;-71
2021/10/30 11:44:04;;;;;;;1.70;0.80;;;9.50;99.90;;;;;;5091159;28;20381;-71
2021/10/30 11:46:31;;;;;;;0.40;0.30;;;9.60;99.90;;;;;;5092220;28;20427;-70
2021/10/30 11:48:59;;;;;;;0.40;0.30;;;9.40;99.90;;;;;;5070614;28;20733;-70
2021/10/30 11:51:33;;;;;;;0.50;0.50;;;9.30;99.90;;;;;;5071274;28;20465;-70
2021/10/30 11:54:01;;;;;;;3.00;1.00;;;9.40;99.90;;;;;;5069765;28;20461;-71
2021/10/30 11:56:29;;;;;;;0.40;0.40;;;9.20;99.90;;;;;;5071520;28;20368;-70
2021/10/30 11:58:59;;;;;;;0.40;0.30;;;9.40;99.90;;;;;;5070832;28;20860;-71
2021/10/30 12:01:26;;;;;;;0.40;0.20;;;9.40;99.90;;;;;;5071346;28;20433;-71
2021/10/30 12:04:00;;;;;;;1.20;1.10;;;9.40;99.90;;;;;;5070646;28;20475;-71
2021/10/30 12:06:27;;;;;;;0.60;0.60;;;9.30;99.90;;;;;;5071186;28;20391;-71
2021/10/30 12:08:56;;;;;;;0.60;0.60;;;9.30;99.90;;;;;;5070726;28;20825;-72
2021/10/30 12:11:21;;;;;;;1.45;1.35;;;9.30;99.90;;;;;;5071057;28;20407;-72
2021/10/30 12:13:49;;;;;;;0.57;0.57;;;9.50;99.90;;;;;;5070544;28;20468;-72
2021/10/30 12:16:16;;;;;;;2.20;0.50;;;9.40;99.90;;;;;;5069878;28;20387;-72
2021/10/30 12:18:42;;;;;;;0.40;0.30;;;9.50;99.90;;;;;;5071168;28;20859;-72
2021/10/30 12:21:09;;;;;;;0.40;0.30;;;9.50;99.90;;;;;;5069241;28;20759;-72
2021/10/30 12:24:16;;;;;;;0.40;0.30;;;9.80;99.90;;;;;;5071109;28;20390;-72
2021/10/30 12:26:54;;;;;;;0.40;0.30;;;9.90;99.90;;;;;;5068092;28;20399;-72
2021/10/30 12:29:22;;;;;;;0.40;0.20;;;10.00;99.90;;;;;;5075493;28;20861;-72
2021/10/30 12:32:35;;;;;;;0.80;0.80;;;10.00;99.90;;;;;;5090687;28;20881;-72
2021/10/30 12:35:01;;;;;;;1.08;0.52;;;9.90;99.90;;;;;;5027815;28;20541;-70
2021/10/30 12:37:31;;;;;;;1.20;1.00;;;9.70;99.90;;;;;;5028250;28;20392;-70
2021/10/30 12:39:59;;;;;;;0.45;0.45;;;9.90;99.90;;;;;;5062548;28;20397;-71
2021/10/30 12:42:25;;;;;;;1.70;0.70;;;10.00;99.90;;;;;;5091550;28;20378;-71
2021/10/30 12:44:52;;;;;;;0.40;0.30;;;10.10;99.90;;;;;;5090272;28;20375;-71
2021/10/30 12:47:21;;;;;;;0.40;0.30;;;10.20;99.90;;;;;;5089723;28;20398;-71
2021/10/30 12:50:11;;;;;;;0.40;0.30;;;10.20;99.90;;;;;;5090854;28;20471;-71
2021/10/30 12:52:45;;;;;;;0.40;0.30;;;10.20;99.90;;;;;;5092006;28;20451;-71
2021/10/30 12:55:23;;;;;;;1.10;1.10;;;10.20;99.90;;;;;;5094246;28;20386;-71
2021/10/30 12:58:00;;;;;;;0.55;0.52;;;10.40;99.90;;;;;;5094391;28;20382;-71
2021/10/30 13:00:40;;;;;;;1.70;0.90;;;10.40;99.90;;;;;;5094269;28;20389;-71
2021/10/30 13:03:16;;;;;;;0.50;0.50;;;10.50;99.90;;;;;;5092707;28;20386;-71